Terminal Aerodrome Forecast
Issued by NWS

Current Version | Previous Version | Text Only | Print | Product List | Glossary On
Versions: 1 2 3 4 5 6 7 8 9 10 11 12 13 14 15
000
FTUS45 KRIW 302300
TAFWRL
TAF
KWRL 302337Z 3100/3124 VRB04KT P6SM FEW120 BKN200
     FM311000 18005KT P6SM VCFG SCT005
     FM311500 31008KT P6SM SKC
     FM312300 33012KT P6SM OVC030=

USA.gov is the U.S. government's official web portal to all federal, state and local government web resources and services.